UK Observations

EGUN 242036Z AUTO 22015G21KT 9999 FEW019 FEW030 13/13 A2969 RMK AO2 RAE36 SLP057 $ EGVA 242029Z AUTO 25011KT 2600 RA BKN004 OVC010 12/11 A2974 RMK AO2 SLP075 $ EGVA 242034Z AUTO 26022G29KT 2000 -RA BKN004 OVC010 12/11 A2974 RMK AO2 SLP075 $ EGVA 242039Z AUTO 27023G29KT 8000 -DZ SCT004 OVC010 12/11 A2974 RMK AO2 RAE38DZB38 CIG 009 RWY09 SLP075 $ EGVA 242040Z AUTO 27020G29KT 9000 M SCT004 OVC010 12/11 A2974 RMK AO2 RAE38DZB38E40 CIG 009 RWY09 SLP075 $ EGVN 242038Z 26008KT 7000 -RADZ FEW004 SCT009 BKN015 12/11 Q1007 GRN BECMG 9999NSW BKN018 WHT KGNC 242035Z AUTO 22007KT 10SM CLR 32/M02 A2999 RMK AO2 T03201019 EGVP 242036Z 22014KT 9999 -RA BKN007 BKN009 12/10 Q1009 GRN TEMPO 6000 RA GRN EGXU 242028Z 33005KT 5000 RA SCT018 OVC050 08/08 Q1004 WHT TEMPO 8000 -RA FEW018 BLU EGAA 242020Z 26010KT 9999 5000E -RA SCT009 SCT013 BKN019 08/07 Q1006 EGAC 242020Z AUTO 24005KT 9999 -RA SCT014/// BKN018/// BKN027/// 09/07 Q1006 EGBB 242020Z 23009KT 200V270 9999 -RA SCT010 BKN020 BKN032 12/11 Q1005 EGCC 242020Z AUTO 29006KT 7000 -RA FEW005 SCT015 BKN025 09/08 Q1006 RERA TEMPO BKN014 EGFF 242020Z 28013KT 9999 VCSH FEW007 BKN016 09/08 Q1009 EGGD 242020Z 25019KT 5000 -RADZ BR BKN002 09/09 Q1009 EGGP 242020Z 29010KT 9999 VCSH SCT009 09/08 Q1007 EGGW 242020Z AUTO 21014KT 9999 -RA BKN013 OVC029 12/10 Q1007 EGHH 242020Z 23015G26KT 8000 -DZ OVC006 11/11 Q1010 EGHI 242020Z 24013G23KT 6000 SHRA BKN007 11/10 Q1010 EGJB 242020Z 23015KT 4000 1000S R27/P1500 VCFG BR SCT000 BKN001 10/10 Q1014 EGJJ 242020Z AUTO 24011KT 9999 -DZ BKN015/// OVC017/// 11/10 Q1014 EGKB 242020Z 21017KT 9999 4000S BKN006 11/10 Q1009 EGKK 242020Z 22011KT 6000 BKN005 12/11 Q1009 EGLC 242020Z AUTO 23016KT 9999 BKN015 OVC022 14/10 Q1008 EGLF 242020Z 22016KT 9999 -RADZ SCT009 BKN012 12/10 Q1009 EGLL 242020Z AUTO 22014KT 9999 -RA BKN015 13/11 Q1008 TEMPO RA BKN014 EGMC 242020Z 22018KT 9999 SCT013 BKN018 13/10 Q1008 EGMD 242020Z AUTO 23019KT 9999 BKN008/// OVC013/// 12/10 Q1011 EGNJ 242020Z 35010KT 5000 RA SCT002 BKN005 10/10 Q1003 EGNM 242020Z 30007KT 9000 -RA SCT006 BKN021 07/07 Q1005 EGNT 242020Z 26003KT 7000 FEW012 BKN041 06/06 Q1004 EGNV 242020Z 19002KT 9999 -RA FEW015 BKN042 08/07 Q1005 EGNX 242020Z 22016KT 7000 -RA SCT013 BKN022 BKN046 12/11 Q1004 EGPA 242020Z AUTO 23007KT 9999 NCD 07/05 Q1001 EGPB 242020Z AUTO 26005KT 9999 BKN012/// 07/06 Q0999 EGPC 242020Z AUTO VRB01KT 9999 SCT043/// 07/06 Q1001 EGPD 242020Z AUTO VRB03KT 9999 NCD 07/05 Q1002 NOSIG EGPE 242020Z 22006KT 9999 FEW024 SCT047 08/04 Q1002 EGPF 242020Z AUTO 22008KT 9999 -RA SCT021/// SCT032/// BKN041/// //////TCU 09/07 Q1004 EGPH 242020Z 24009KT 9999 -SHRA SCT018 SCT035TCU 09/06 Q1004 EGPK 242020Z 22005KT 9999 SCT030 09/06 Q1005 EGPL 242020Z AUTO 24008KT 9999 NCD 08/06 Q1002 EGPM 242020Z AUTO 21005KT 9999 -RA BKN013/// OVC026/// 06/05 Q0999 EGPO 242020Z AUTO 24004KT 9999 NCD 06/04 Q1001 EGPU 242020Z AUTO 20006KT 9999 NCD 06/05 Q1003 EGSH 242020Z 21016KT 9000 RA BKN011 13/12 Q1005 TEMPO BKN008 EGSS 242020Z AUTO 22015KT 9999 -RA BKN016 12/11 Q1007 EGTE 242020Z 29015KT 9999 FEW010 SCT015 11/09 Q1010 EGUL 242006Z AUTO 20011G22KT 9999 -RA BKN016 13/11 A2968 RMK AO2 BKN V SCT SLP054 $ EGUL 242010Z AUTO 20012G22KT 9999 -RA SCT016 13/11 A2968 RMK AO2 SLP054 $ EGUN 242008Z AUTO 21018G22KT 9999 CLR 13/13 A2968 RMK AO2 SLP054 $ EGUN 242024Z AUTO 21017G21KT 9999 -RA FEW017 13/13 A2969 RMK AO2 SLP057 $ EGVA 242005Z AUTO 23013G22KT 2200 -RA BR OVC006 12/11 A2973 RMK AO2 VIS 9000V9999 CIG 007V013 SLP072 $ EGVA 242010Z AUTO 23012G22KT 1400 R27/0800VP1500 -RA BR OVC006 12/11 A2973 RMK AO2 VIS 9000V9999 CIG 006V013 SLP072 $ EGVA 242012Z AUTO 24008KT 9999 -RA BKN006 OVC011 12/11 A2974 RMK AO2 VIS 1200 RWY27 CIG 006V011 SLP075 $ EGVA 242013Z AUTO 23013KT 1400 R27/0800VP1500 -RA OVC006 12/11 A2974 RMK AO2 VIS 9000V9999 CIG 006V011 SLP075 $ EGVA 242014Z AUTO 24012KT 2000 -RA OVC006 12/11 A2974 RMK AO2 VIS 9000V9999 CIG006V011 OVC V SCT SLP075 $ EGVA 242019Z AUTO 25010KT 2200 RA OVC005 12/11 A2974 RMK AO2 VIS 9000V9999 CIG 006V011 SLP075 $ KGNC 242015Z AUTO 26004KT 10SM CLR 32/M02 A2999 RMK AO2 T03161022 EGCN 242020Z 33012KT 8000 -RA FEW005 SCT016 BKN028 10/09 Q1005 EGPI 242020Z AUTO 23007KT 9999 FEW027/// 07/06 Q1004 EGVP 242017Z 23014KT 7000 RA BKN006 OVC008 11/10 Q1009 YLO1 TEMPO 9999 -RA BKN007 GRN EGTK 242020Z 22015KT 4000 RA FEW006 SCT011 BKN015 12/11 Q1006 EGAA 241950Z 23007KT 9999 -RA SCT011 BKN016 08/07 Q1006 EGAC 241950Z AUTO 25005KT 9999 -RA BKN035/// 09/07 Q1006 EGAE 241950Z 24009KT 9999 FEW010 SCT028 09/07 Q1005 EGBB 241950Z 23011KT 200V270 9999 6000SW -DZ BKN009 BKN014 12/11 Q1005 EGCC 241950Z 29007KT 270V330 8000 RA BKN006 BKN012 09/08 Q1005 TEMPO -SHRA SCT006 EGDM 241950Z AUTO 23018KT 9999 -RADZ OVC007/// 12/10 Q1009 EGDR 241950Z 29011G22KT 9999 FEW005 SCT007 BKN012 09/08 Q1012 RERA REDZ GRN BECMG 9999 NSW FEW020 SCT040 BLU EGDY 241950Z 21011KT 9999 RA SCT013 BKN023 12/11 Q1009 GRN NOSIG EGFF 241950Z 27015KT 9999 VCSH SCT008 BKN015 09/09 Q1009 EGGD 241950Z 25014KT 3500 -RADZ BR BKN002 11/11 Q1008 EGGP 241950Z 31006KT 270V330 9999 VCSH FEW009 09/08 Q1006 EGGW 241950Z AUTO 21014KT 9999 -RA SCT014 BKN035 12/10 Q1007 EGHH 241950Z 23017KT 8000 DZRA OVC004 11/11 Q1010 EGHI 241950Z 23013KT 210V270 7000 SHRA BKN008 11/10 Q1010 EGJB 241950Z 22018KT 0700 R27/1000 FG BKN000 BKN001 11/11 Q1014 EGJJ 241950Z 24011KT 9999 FEW015 BKN019 11/10 Q1014 EGKB 241950Z 21015KT 9999 4000S BKN009 11/10 Q1009 EGKK 241950Z 22011KT 8000 BKN007 12/11 Q1010 EGLC 241950Z AUTO 23014G24KT 190V260 9999 BKN017 14/10 Q1008 EGLF 241950Z 22015KT 9999 BKN009 11/10 Q1009 EGLL 241950Z AUTO 23014KT 9999 -RA BKN015 BKN020 13/10 Q1008 NOSIG EGMC 241950Z 22015KT 9999 BKN013 13/10 Q1009 EGMD 241950Z AUTO 24017KT 9999 BKN009/// BKN013/// OVC031/// 12/10 Q1011 EGNH 241950Z 28007KT 9999 -RA SCT028 BKN048 08/08 Q1006 EGNJ 241950Z 34006KT 270V030 3000 RA SCT002 OVC005 10/10 Q1003 EGNM 241950Z 34004KT 310V010 9999 -RA FEW007 BKN037 08/07 Q1004 EGNS 241950Z 24005KT 190V270 9999 FEW010 08/07 Q1006 NOSIG EGNT 241950Z 26004KT 7000 FEW012 BKN041 07/06 Q1004 EGNV 241950Z 14001KT 9999 -RA FEW015 BKN045 08/07 Q1005 EGNX 241950Z 22017KT 9999 BKN032 12/11 Q1004 EGOS 241950Z AUTO 33011KT 9999 -RA FEW008/// BKN024/// 09/08 Q1006 EGOV 241950Z 21004KT 9999 FEW045 SCT070 07/06 Q1007 BLU EGPA 241950Z AUTO 25008KT 9999 NCD 07/05 Q1001 EGPB 241950Z AUTO 27005KT 9999 FEW007/// SCT018/// 07/06 Q0999 EGPC 241950Z AUTO 30005KT 9999 SCT034/// BKN043/// 07/06 Q1001 EGPD 241950Z AUTO 03004KT 9999 NCD 08/06 Q1002 NOSIG EGPE 241950Z 25007KT 9999 FEW024 09/04 Q1002 EGPF 241950Z AUTO 24007KT 9999 -RA SCT016 SCT022 BKN028 09/07 Q1004 EGPH 241950Z 26006KT 9999 -SHRA FEW022 SCT035 09/06 Q1004 EGPK 241950Z 22007KT 9999 FEW020 SCT035 09/06 Q1005 EGPL 241950Z AUTO 24009KT 9999 NCD 08/06 Q1002 EGPM 241950Z AUTO 22003KT 9999 OVC022/// 06/04 Q0999 EGPO 241950Z AUTO 25007KT 9999 NCD 07/04 Q1001 EGPU 241950Z AUTO 21006KT 9999 NCD 07/05 Q1003 EGQK 241950Z AUTO 26009KT 9999 BKN045/// 09/04 Q1002 RERA EGQL 241950Z 25010KT CAVOK 09/05 Q1003 BLU EGQM 241950Z AUTO 22009KT 9999 SCT050/// SCT140/// 08/06 Q1004 EGQS 241950Z 19002KT 9999 FEW025 SCT045 08/06 Q1002 BLU EGSH 241950Z 21015KT 9999 RA BKN011 13/12 Q1005 TEMPO 7000 RA BKN009 EGSS 241950Z AUTO 22015KT 9999 BKN015 13/11 Q1007 EGTE 241950Z 24010KT 5000 -DZRA FEW015 SCT020 12/10 Q1010 EGUB 241950Z 21014KT 9999 -RA BKN015 13/10 Q1008 WHT TEMPO SCT014 GRN EGUL 242003Z AUTO 20013G22KT 9999 -RA SCT016 13/11 A2968 RMK AO2 SLP054 $ EGUL 242051Z AUTO 21014KT 9999 -RA BKN019 13/11 A2968 RMK AO2 CIG 019V035 BKN VSCT SLP054 $ EGUL 241956Z AUTO 20012KT 9999 -RA BKN018 13/11 A2968 RMK AO2 RAB33 CIG 016 RWY06 SLP054 P0001 T01310112 $ EGUN 241956Z AUTO 21016G22KT 9999 -RA FEW014 SCT020 SCT080 13/13 A2969 RMK AO2 RAB18E29DZB29E33RAB33E44DZB44E45RAB46 SLP057 P0000 T01320132 . EGUN 242048Z AUTO 22016G24KT 9999 -RA FEW021 SCT030 13/13 A2969 RMK AO2 RAE36RAB48 SLP057 $ EGUN 241956Z AUTO 21016G22KT 9999 -RA FEW014 SCT020 SCT080 13/13 A2969 RMK AO2 RAB18E29DZB29E33RAB33E44DZB44E45RAB46 SLP057 P0000 T01320132 $ EGVA 242001Z AUTO 22016G22KT 4400 -RA OVC008 12/11 A2973 RMK AO2 CIG 007V015 SLP072 $ EGVA 242050Z AUTO 26022G29KT 4000 M FEW004 OVC010 11/11 A2975 RMK AO2 RAE38DZB38E40 CIG 009V011 SLP078 $ EGVA 241956Z AUTO 22015G21KT 5000 -RA OVC008 12/11 A2973 RMK AO2 CIG 007V015 CIG 007 RWY09 SLP072 P0001 T01190108 $ EGVN 241950Z 22009KT 4000 -RADZ SCT008 SCT012 BKN018 12/11 Q1007 GRN BECMG 9999 NSW BKN018 WHT EGVN 241950Z 22009KT 4000 -RADZ SCT008 SCT012 BKN018 12/11 Q1007 BECMG 9999 NSWBKN018 EGWU 241950Z AUTO 24014KT 9999 // BKN016/// SCT023/// 13/10 Q1008 EGXC 241950Z 23017KT 9999 -RA FEW014 SCT018 OVC025 13/11 Q1003 WHT EGXT 241950Z AUTO 23019KT 9999 RA SCT017/// SCT020/// BKN070/// 13/11 Q1004 EGYD 241950Z AUTO 23019KT 9999 // SCT014/// BKN030/// 13/11 Q1003 GBYD 242000Z 27008KT CAVOK 22/16 Q1011 KGNC 241955Z AUTO 19007G15KT 10SM CLR 33/M02 A3000 RMK AO2 T03251020 EGCN 241950Z 33014KT 8000 -RA FEW002 SCT005 BKN016 09/09 Q1004 EGDX 241950Z AUTO 26015KT 9999 BKN003/// BKN013/// 09/08 Q1008 EGHQ 241950Z 29011KT 8000 VCSH SCT004 SCT014 09/08 Q1012 EGNR 241950Z 31007KT 9999 -RA SCT005 BKN015 08/08 Q1007 EGOM 241950Z AUTO 25006KT 9999 FEW014/// BKN050/// BKN140/// 05/05 Q1004 EGOP 241950Z AUTO 30017KT 9999 // SCT008/// SCT013/// BKN034/// 09/08 Q1010 EGPI 241950Z AUTO 25004KT 9999 FEW036/// SCT049/// 07/06 Q1004 EGUW 241950Z AUTO 22013KT 9999 BKN012/// 13/11 Q1007 EGVO 241950Z 23018KT 9999 -RA FEW006 OVC008 12/10 Q1009 GRN TEMPO SCT006 YLO1 EGVP 241950Z 23016KT 9999 -RA BKN007 OVC008 12/10 Q1009 GRN TEMPO 5000 RA BKN006 YLO1 EGXE 241950Z 01003KT 9999 -RA FEW024 BKN040 08/07 Q1005 BLU NOSIG EGXP 241950Z AUTO 23017KT 9999 // FEW006/// BKN012/// BKN037/// 12/12 Q1002 EGXS 241950Z AUTO 19008KT 2000 // BKN003/// BKN007/// 12/12 Q1002 EGXU 241950Z 36004KT 8000 RA SCT015 OVC050 08/08 Q1004 WHT TEMPO 7000 RA WHT EGXV 241950Z AUTO 03007KT 4100 RA BKN002/// BKN017/// 08/08 Q1003 EGXW 241950Z 23014KT 9999 -RA SCT004 BKN250 13/12 Q1003 RERA YLO2 EGXZ 241950Z 35005KT 9999 RA SCT022 OVC044 08/07 Q1005 WHT EGYH 241950Z 23018KT 9999 BKN015 13/12 Q1004 WHT EGYM 241950Z 21017KT 9999 -RA FEW007 BKN012 13/12 Q1005 GRN EGTK 241950Z 22014KT 9999 SCT011 BKN014 BKN017 12/11 Q1006